Terminal Aerodrome Forecast
Issued by NWS

Home | Current Version | Previous Version | Text Only | Print | Product List | Glossary On
Versions: 1 2 3 4 5 6 7 8 9 10 11 12 13 14 15 16 17 18 19 20 21 22 23 24 25 26 27 28 29 30 31
636
FTUS42 KCAE 272335
TAFOGB
TAF
KOGB 272335Z 2800/2824 19008KT P6SM VCSH SCT060 OVC120
     FM280600 20003KT P6SM OVC150
     FM281000 VRB03KT 4SM BR SCT015
     FM281500 21010KT P6SM BKN050=

USA.gov is the U.S. government's official web portal to all federal, state and local government web resources and services.